Time;durP1;ratioP1;P1;durP2;ratioP2;P2;SDS_P1;SDS_P2;PMS_P1;PMS_P2;Temp;Humidity;BMP_temperature;BMP_pressure;BME280_temperature;BME280_humidity;BME280_pressure;Samples;Min_cycle;Max_cycle;Signal;HPM_P1;HPM_P2
2021/08/27 00:01:44;;;;;;;8.23;2.00;;;;;;;;;;5024306;28;20131;-73
2021/08/27 00:04:10;;;;;;;14.20;2.00;;;;;;;;;;5041443;28;20055;-73
2021/08/27 00:06:36;;;;;;;11.30;2.47;;;;;;;;;;5041728;28;20485;-73
2021/08/27 00:09:03;;;;;;;8.68;1.90;;;;;;;;;;5059708;28;20072;-73
2021/08/27 00:11:29;;;;;;;11.90;2.35;;;;;;;;;;5028871;28;20079;-73
2021/08/27 00:13:55;;;;;;;17.75;2.70;;;;;;;;;;5043466;28;20493;-73
2021/08/27 00:16:22;;;;;;;13.77;1.95;;;;;;;;;;5045517;28;20102;-73
2021/08/27 00:18:48;;;;;;;13.77;2.35;;;;;;;;;;5053716;28;20747;-73
2021/08/27 00:21:14;;;;;;;14.13;2.35;;;;;;;;;;5046553;28;20124;-73
2021/08/27 00:23:40;;;;;;;8.40;1.98;;;;;;;;;;5057759;28;20086;-73
2021/08/27 00:26:07;;;;;;;13.65;2.50;;;;;;;;;;5056894;28;20056;-73
2021/08/27 00:28:33;;;;;;;14.57;2.55;;;;;;;;;;5049842;28;20033;-73
2021/08/27 00:30:59;;;;;;;11.25;1.95;;;;;;;;;;5024219;28;20041;-73
2021/08/27 00:33:26;;;;;;;9.07;1.85;;;;;;;;;;5046316;28;20099;-73
2021/08/27 00:35:52;;;;;;;13.38;2.17;;;;;;;;;;5040777;28;20037;-73
2021/08/27 00:38:18;;;;;;;9.80;2.22;;;;;;;;;;5058585;28;20160;-73
2021/08/27 00:40:45;;;;;;;10.35;1.83;;;;;;;;;;5025922;28;20331;-73
2021/08/27 00:43:12;;;;;;;7.75;1.33;;;;;;;;;;5025753;28;20059;-73
2021/08/27 00:45:39;;;;;;;7.18;1.70;;;;;;;;;;5054923;28;20059;-73
2021/08/27 00:48:05;;;;;;;9.43;1.88;;;;;;;;;;5034658;28;20072;-73
2021/08/27 00:50:31;;;;;;;9.60;1.92;;;;;;;;;;5043384;28;20095;-73
2021/08/27 00:52:58;;;;;;;7.22;2.10;;;;;;;;;;5027882;28;20056;-73
2021/08/27 00:55:24;;;;;;;9.23;2.55;;;;;;;;;;5041259;28;20124;-73
2021/08/27 00:57:50;;;;;;;11.40;2.22;;;;;;;;;;5023695;28;20068;-73
2021/08/27 01:00:16;;;;;;;9.13;2.75;;;;;;;;;;5021133;28;20045;-73
2021/08/27 01:02:43;;;;;;;14.80;2.45;;;;;;;;;;5011884;28;20052;-73
2021/08/27 01:05:09;;;;;;;12.10;2.17;;;;;;;;;;5041595;28;20483;-73
2021/08/27 01:07:38;;;;;;;10.80;2.35;;;;;;;;;;5043856;28;20448;-73
2021/08/27 01:10:07;;;;;;;9.65;1.80;;;;;;;;;;5044998;28;20076;-73
2021/08/27 01:12:38;;;;;;;11.80;1.98;;;;;;;;;;5024199;28;20133;-73
2021/08/27 01:15:06;;;;;;;6.85;1.77;;;;;;;;;;5037650;28;20093;-73
2021/08/27 01:17:35;;;;;;;6.38;2.08;;;;;;;;;;5045361;28;20387;-73
2021/08/27 01:20:06;;;;;;;7.70;2.00;;;;;;;;;;5010999;28;20456;-73
2021/08/27 01:22:50;;;;;;;8.00;2.10;;;;;;;;;;5043589;28;20106;-73
2021/08/27 01:25:19;;;;;;;7.38;2.00;;;;;;;;;;5045754;28;20124;-73
2021/08/27 01:27:45;;;;;;;8.98;2.03;;;;;;;;;;5029502;28;20492;-73
2021/08/27 01:30:14;;;;;;;11.20;1.88;;;;;;;;;;5023812;28;20045;-73
2021/08/27 01:32:52;;;;;;;9.27;2.03;;;;;;;;;;5042409;28;20345;-73
2021/08/27 01:35:18;;;;;;;8.65;2.63;;;;;;;;;;5048867;28;20451;-73
2021/08/27 01:37:48;;;;;;;5.78;1.88;;;;;;;;;;5045832;28;20064;-73
2021/08/27 01:40:16;;;;;;;8.48;1.77;;;;;;;;;;5042950;28;20370;-73
2021/08/27 01:42:43;;;;;;;10.15;2.00;;;;;;;;;;5045643;28;20076;-73
2021/08/27 01:45:10;;;;;;;14.98;2.33;;;;;;;;;;5036858;28;20048;-73
2021/08/27 01:47:37;;;;;;;8.48;1.90;;;;;;;;;;5028678;28;20044;-73
2021/08/27 01:50:05;;;;;;;10.65;2.00;;;;;;;;;;5026345;28;20509;-73
2021/08/27 01:52:31;;;;;;;10.43;2.22;;;;;;;;;;5045817;28;20090;-73
2021/08/27 01:54:58;;;;;;;6.38;1.83;;;;;;;;;;5048505;28;20456;-73
2021/08/27 01:57:26;;;;;;;7.47;1.60;;;;;;;;;;5046364;28;20056;-73
2021/08/27 01:59:52;;;;;;;9.93;2.38;;;;;;;;;;5060277;28;20061;-73
2021/08/27 02:02:19;;;;;;;10.18;2.10;;;;;;;;;;5029126;28;20072;-73
2021/08/27 02:04:48;;;;;;;8.93;1.85;;;;;;;;;;5044276;28;20049;-72
2021/08/27 02:07:15;;;;;;;6.57;1.33;;;;;;;;;;5047870;28;20385;-73
2021/08/27 02:09:42;;;;;;;10.35;1.83;;;;;;;;;;5026659;28;20127;-73
2021/08/27 02:12:08;;;;;;;12.15;1.55;;;;;;;;;;5032145;28;20107;-73
2021/08/27 02:14:35;;;;;;;8.32;2.15;;;;;;;;;;5042474;28;20145;-73
2021/08/27 02:17:04;;;;;;;12.55;2.50;;;;;;;;;;5038164;28;20072;-73
2021/08/27 02:19:30;;;;;;;10.50;1.65;;;;;;;;;;5044904;28;20076;-73
2021/08/27 02:21:57;;;;;;;10.30;1.85;;;;;;;;;;5033137;28;20052;-73
2021/08/27 02:24:27;;;;;;;11.82;1.52;;;;;;;;;;5029382;28;20034;-73
2021/08/27 02:26:54;;;;;;;8.35;2.15;;;;;;;;;;5047659;28;20040;-73
2021/08/27 02:29:21;;;;;;;11.77;2.05;;;;;;;;;;5026288;28;20120;-73
2021/08/27 02:31:51;;;;;;;13.73;2.38;;;;;;;;;;5047489;28;20080;-73
2021/08/27 02:34:18;;;;;;;11.55;2.03;;;;;;;;;;5060620;28;20048;-73
2021/08/27 02:36:46;;;;;;;11.02;2.10;;;;;;;;;;5046550;28;20439;-73
2021/08/27 02:39:13;;;;;;;16.60;3.20;;;;;;;;;;5047653;28;20519;-73
2021/08/27 02:41:39;;;;;;;10.15;1.92;;;;;;;;;;5026034;28;20187;-73
2021/08/27 02:44:05;;;;;;;10.68;1.70;;;;;;;;;;5040766;28;20130;-73
2021/08/27 02:46:32;;;;;;;11.02;2.13;;;;;;;;;;5058425;28;20065;-73
2021/08/27 02:48:58;;;;;;;9.77;2.00;;;;;;;;;;5025020;28;20041;-73
2021/08/27 02:51:29;;;;;;;12.27;2.42;;;;;;;;;;5046747;28;20160;-73
2021/08/27 02:53:58;;;;;;;13.23;1.98;;;;;;;;;;5049123;28;20370;-73
2021/08/27 02:56:26;;;;;;;11.32;1.83;;;;;;;;;;5043090;28;20092;-73
2021/08/27 02:58:54;;;;;;;8.55;1.42;;;;;;;;;;5027140;28;20390;-73
2021/08/27 03:01:29;;;;;;;10.30;1.63;;;;;;;;;;5031609;28;20479;-73
2021/08/27 03:04:07;;;;;;;10.10;1.88;;;;;;;;;;5044104;28;20425;-73
2021/08/27 03:06:44;;;;;;;11.10;2.30;;;;;;;;;;5029114;28;20060;-73
2021/08/27 03:09:10;;;;;;;10.27;2.10;;;;;;;;;;5027288;28;20057;-73
2021/08/27 03:11:40;;;;;;;12.43;1.77;;;;;;;;;;5023805;28;20286;-73
2021/08/27 03:14:10;;;;;;;6.05;1.95;;;;;;;;;;5064614;28;20077;-73
2021/08/27 03:16:39;;;;;;;11.85;2.15;;;;;;;;;;5024946;28;20064;-73
2021/08/27 03:19:11;;;;;;;19.55;2.03;;;;;;;;;;5026200;28;21146;-72
2021/08/27 03:21:43;;;;;;;7.03;2.03;;;;;;;;;;5043924;28;20029;-73
2021/08/27 03:24:20;;;;;;;12.30;1.83;;;;;;;;;;5028290;28;20111;-73
2021/08/27 03:26:49;;;;;;;5.95;1.40;;;;;;;;;;5066330;28;20068;-73
2021/08/27 03:29:18;;;;;;;13.70;1.63;;;;;;;;;;5041635;28;20083;-72
2021/08/27 03:31:44;;;;;;;11.63;2.20;;;;;;;;;;5027275;28;20425;-72
2021/08/27 03:34:11;;;;;;;13.55;2.67;;;;;;;;;;5053019;28;20365;-73
2021/08/27 03:36:39;;;;;;;13.13;2.33;;;;;;;;;;5042195;28;20045;-73
2021/08/27 03:39:06;;;;;;;11.10;2.38;;;;;;;;;;5062562;28;20116;-73
2021/08/27 03:41:34;;;;;;;8.32;1.90;;;;;;;;;;5047315;28;20584;-72
2021/08/27 03:44:01;;;;;;;10.73;2.08;;;;;;;;;;5042950;28;20029;-73
2021/08/27 03:46:28;;;;;;;11.60;2.75;;;;;;;;;;5045370;28;20130;-73
2021/08/27 03:48:55;;;;;;;14.68;2.30;;;;;;;;;;5058672;28;20083;-73
2021/08/27 03:51:21;;;;;;;9.95;2.47;;;;;;;;;;5046430;28;20144;-73
2021/08/27 03:53:47;;;;;;;16.20;2.28;;;;;;;;;;5029736;28;20045;-73
2021/08/27 03:56:15;;;;;;;12.43;2.90;;;;;;;;;;5035111;28;20060;-73
2021/08/27 03:58:41;;;;;;;14.27;2.45;;;;;;;;;;5040574;28;20056;-73
2021/08/27 04:01:07;;;;;;;11.05;2.22;;;;;;;;;;5043298;28;20132;-73
2021/08/27 04:03:35;;;;;;;13.25;2.22;;;;;;;;;;5027088;28;20087;-73
2021/08/27 04:06:04;;;;;;;11.98;2.47;;;;;;;;;;5039611;28;20048;-73
2021/08/27 04:08:31;;;;;;;11.27;2.65;;;;;;;;;;5028983;28;20059;-73
2021/08/27 04:10:57;;;;;;;8.80;2.08;;;;;;;;;;5024074;28;21653;-73
2021/08/27 04:13:23;;;;;;;12.73;2.67;;;;;;;;;;5028038;28;20121;-73
2021/08/27 04:15:49;;;;;;;10.75;2.35;;;;;;;;;;5029176;28;20041;-73
2021/08/27 04:18:16;;;;;;;13.75;2.72;;;;;;;;;;5024929;28;20044;-73
2021/08/27 04:20:42;;;;;;;13.20;2.20;;;;;;;;;;5057363;28;20055;-73
2021/08/27 04:23:08;;;;;;;12.85;2.28;;;;;;;;;;5026808;28;20099;-73
2021/08/27 04:25:34;;;;;;;8.43;1.67;;;;;;;;;;5024387;28;20453;-73
2021/08/27 04:28:00;;;;;;;8.30;1.90;;;;;;;;;;5050179;28;20040;-73
2021/08/27 04:30:27;;;;;;;14.70;2.00;;;;;;;;;;5046497;28;20069;-73
2021/08/27 04:32:53;;;;;;;11.23;2.30;;;;;;;;;;5042748;28;20151;-73
2021/08/27 04:35:19;;;;;;;15.93;2.80;;;;;;;;;;5042099;28;20045;-73
2021/08/27 04:37:45;;;;;;;12.02;2.83;;;;;;;;;;5033407;28;20048;-73
2021/08/27 04:40:12;;;;;;;18.17;3.22;;;;;;;;;;5044642;28;20092;-73
2021/08/27 04:42:38;;;;;;;16.60;3.25;;;;;;;;;;5026978;28;20052;-73
2021/08/27 04:45:04;;;;;;;19.88;4.38;;;;;;;;;;5054399;28;20197;-73
2021/08/27 04:47:31;;;;;;;20.35;3.80;;;;;;;;;;5028049;28;20048;-73
2021/08/27 04:49:57;;;;;;;16.55;3.10;;;;;;;;;;5027341;28;20041;-73
2021/08/27 04:52:23;;;;;;;20.73;3.60;;;;;;;;;;5024115;28;20053;-73
2021/08/27 04:54:49;;;;;;;26.27;3.80;;;;;;;;;;5033633;28;20447;-73
2021/08/27 04:57:15;;;;;;;15.68;3.35;;;;;;;;;;5062935;28;20481;-73
2021/08/27 04:59:45;;;;;;;14.63;2.72;;;;;;;;;;5034975;28;20029;-73
2021/08/27 05:02:12;;;;;;;11.70;2.70;;;;;;;;;;5055513;28;20252;-73
2021/08/27 05:04:38;;;;;;;15.48;3.13;;;;;;;;;;5036678;28;20127;-75
2021/08/27 05:07:04;;;;;;;16.15;2.95;;;;;;;;;;5024323;28;20053;-73
2021/08/27 05:09:30;;;;;;;13.95;2.90;;;;;;;;;;5046084;28;20123;-74
2021/08/27 05:11:57;;;;;;;9.15;2.03;;;;;;;;;;5022812;28;20388;-73
2021/08/27 05:14:23;;;;;;;6.68;1.75;;;;;;;;;;5027113;28;20114;-73
2021/08/27 05:16:50;;;;;;;11.77;2.45;;;;;;;;;;5029295;28;20536;-73
2021/08/27 05:19:16;;;;;;;9.35;2.00;;;;;;;;;;5048872;28;20190;-73
2021/08/27 05:21:42;;;;;;;9.20;2.05;;;;;;;;;;5040118;28;20045;-72
2021/08/27 05:24:09;;;;;;;9.13;1.67;;;;;;;;;;5034626;28;20033;-74
2021/08/27 05:26:36;;;;;;;5.75;1.52;;;;;;;;;;5049424;28;20052;-74
2021/08/27 05:29:02;;;;;;;17.52;2.65;;;;;;;;;;5039569;28;20068;-73
2021/08/27 05:31:28;;;;;;;11.32;1.88;;;;;;;;;;5042675;28;20144;-73
2021/08/27 05:33:55;;;;;;;7.97;1.92;;;;;;;;;;5049973;28;20079;-73
2021/08/27 05:36:21;;;;;;;7.53;1.92;;;;;;;;;;5031790;28;20045;-73
2021/08/27 05:38:47;;;;;;;10.57;2.28;;;;;;;;;;5043140;28;20041;-73
2021/08/27 05:41:14;;;;;;;10.82;2.03;;;;;;;;;;5034738;28;20090;-74
2021/08/27 05:43:40;;;;;;;11.13;2.80;;;;;;;;;;5049248;28;20045;-74
2021/08/27 05:46:06;;;;;;;13.00;2.33;;;;;;;;;;5045370;28;20037;-73
2021/08/27 05:48:33;;;;;;;15.57;2.50;;;;;;;;;;5027892;28;20473;-73
2021/08/27 05:50:59;;;;;;;13.15;2.38;;;;;;;;;;5028145;28;20049;-74
2021/08/27 05:53:25;;;;;;;15.35;3.38;;;;;;;;;;5042368;28;20457;-73
2021/08/27 05:55:51;;;;;;;16.95;3.00;;;;;;;;;;5060900;28;20038;-73
2021/08/27 05:58:17;;;;;;;18.75;4.35;;;;;;;;;;5029956;28;20040;-73
2021/08/27 06:00:44;;;;;;;27.08;5.63;;;;;;;;;;5019893;28;20049;-73
2021/08/27 06:03:11;;;;;;;17.48;3.42;;;;;;;;;;5064923;28;20505;-73
2021/08/27 06:05:38;;;;;;;18.45;2.83;;;;;;;;;;5029713;28;20053;-73
2021/08/27 06:08:04;;;;;;;22.55;3.75;;;;;;;;;;5030914;28;20056;-73
2021/08/27 06:10:30;;;;;;;19.33;3.65;;;;;;;;;;5062802;28;20488;-74
2021/08/27 06:12:56;;;;;;;15.73;3.42;;;;;;;;;;5053451;28;20126;-74
2021/08/27 06:15:23;;;;;;;13.23;4.13;;;;;;;;;;5029103;28;20547;-73
2021/08/27 06:17:49;;;;;;;17.17;3.40;;;;;;;;;;5052298;28;20123;-74
2021/08/27 06:20:15;;;;;;;16.35;3.00;;;;;;;;;;5032020;28;20049;-74
2021/08/27 06:22:41;;;;;;;19.10;3.95;;;;;;;;;;5051000;28;20048;-74
2021/08/27 06:25:08;;;;;;;16.30;3.13;;;;;;;;;;5033197;28;20052;-74
2021/08/27 06:27:34;;;;;;;14.23;3.20;;;;;;;;;;5035167;28;20041;-74
2021/08/27 06:30:02;;;;;;;13.75;2.50;;;;;;;;;;5068113;28;20052;-74
2021/08/27 06:32:28;;;;;;;14.93;3.03;;;;;;;;;;5048390;28;20507;-73
2021/08/27 06:34:55;;;;;;;14.20;2.58;;;;;;;;;;5050178;28;20040;-74
2021/08/27 06:37:22;;;;;;;13.27;2.25;;;;;;;;;;5049956;28;20064;-73
2021/08/27 06:39:48;;;;;;;11.18;2.55;;;;;;;;;;5064973;28;20049;-74
2021/08/27 06:42:14;;;;;;;14.27;2.70;;;;;;;;;;5052051;28;20148;-73
2021/08/27 06:44:40;;;;;;;13.20;2.63;;;;;;;;;;5050553;28;20048;-73
2021/08/27 06:47:07;;;;;;;13.88;3.00;;;;;;;;;;5065591;28;20480;-74
2021/08/27 06:49:34;;;;;;;10.40;2.10;;;;;;;;;;5049649;28;20077;-73
2021/08/27 06:52:00;;;;;;;11.52;2.25;;;;;;;;;;5029250;28;20044;-73
2021/08/27 06:54:26;;;;;;;12.35;2.38;;;;;;;;;;5051948;28;20045;-74
2021/08/27 06:56:52;;;;;;;11.93;2.42;;;;;;;;;;5028790;28;20045;-73
2021/08/27 06:59:19;;;;;;;14.77;2.63;;;;;;;;;;5058444;28;20151;-74
2021/08/27 07:01:45;;;;;;;10.18;2.03;;;;;;;;;;5047538;28;20151;-73
2021/08/27 07:04:11;;;;;;;13.40;2.10;;;;;;;;;;5050038;28;20048;-73
2021/08/27 07:06:37;;;;;;;16.58;2.75;;;;;;;;;;5061497;28;20128;-74
2021/08/27 07:09:03;;;;;;;18.25;2.60;;;;;;;;;;5033821;28;20037;-73
2021/08/27 07:11:30;;;;;;;13.65;2.80;;;;;;;;;;5043146;28;20084;-73
2021/08/27 07:13:56;;;;;;;13.15;2.22;;;;;;;;;;5045568;28;20055;-73
2021/08/27 07:16:22;;;;;;;17.35;2.78;;;;;;;;;;5057269;28;20045;-73
2021/08/27 07:18:48;;;;;;;13.10;2.28;;;;;;;;;;5018565;28;20064;-73
2021/08/27 07:21:14;;;;;;;10.52;2.25;;;;;;;;;;5059427;28;20044;-73
2021/08/27 07:23:41;;;;;;;13.55;3.22;;;;;;;;;;5048788;28;20041;-72
2021/08/27 07:26:07;;;;;;;14.90;2.80;;;;;;;;;;5046947;28;20087;-73
2021/08/27 07:28:33;;;;;;;11.75;1.75;;;;;;;;;;5063759;28;20127;-73
2021/08/27 07:31:00;;;;;;;12.68;1.80;;;;;;;;;;5057238;28;20098;-73
2021/08/27 07:33:26;;;;;;;8.35;1.63;;;;;;;;;;5060220;28;20485;-73
2021/08/27 07:35:52;;;;;;;8.32;1.40;;;;;;;;;;5032154;28;20034;-74
2021/08/27 07:38:18;;;;;;;7.82;1.10;;;;;;;;;;5061155;28;20093;-73
2021/08/27 07:40:44;;;;;;;6.53;1.60;;;;;;;;;;5046357;28;20353;-73
2021/08/27 07:43:11;;;;;;;9.18;1.42;;;;;;;;;;5052457;28;20056;-73
2021/08/27 07:45:37;;;;;;;8.02;1.85;;;;;;;;;;5053855;28;20037;-73
2021/08/27 07:48:04;;;;;;;9.35;1.80;;;;;;;;;;5030103;28;20186;-74
2021/08/27 07:50:30;;;;;;;16.80;2.53;;;;;;;;;;5051694;28;20104;-74
2021/08/27 07:52:56;;;;;;;17.02;2.63;;;;;;;;;;5058387;28;20088;-73
2021/08/27 07:55:22;;;;;;;15.88;2.38;;;;;;;;;;5039098;28;20049;-73
2021/08/27 07:57:48;;;;;;;9.90;2.20;;;;;;;;;;5040183;28;20437;-73
2021/08/27 08:00:15;;;;;;;17.92;2.17;;;;;;;;;;5059141;28;20056;-73
2021/08/27 08:02:41;;;;;;;10.02;2.35;;;;;;;;;;5033300;28;20132;-73
2021/08/27 08:05:08;;;;;;;10.35;1.98;;;;;;;;;;5047075;28;20453;-73
2021/08/27 08:07:34;;;;;;;10.95;2.78;;;;;;;;;;5039325;28;20040;-73
2021/08/27 08:10:00;;;;;;;14.73;3.22;;;;;;;;;;5038039;28;20115;-73
2021/08/27 08:12:26;;;;;;;12.07;2.28;;;;;;;;;;5033449;28;20045;-73
2021/08/27 08:14:52;;;;;;;9.45;1.92;;;;;;;;;;5053420;28;20049;-73
2021/08/27 08:17:19;;;;;;;12.23;2.50;;;;;;;;;;5046883;28;20470;-73
2021/08/27 08:19:45;;;;;;;14.13;2.03;;;;;;;;;;5038458;28;20065;-73
2021/08/27 08:22:11;;;;;;;8.02;1.90;;;;;;;;;;5041163;28;20048;-73
2021/08/27 08:24:37;;;;;;;9.73;2.00;;;;;;;;;;5055305;28;20095;-73
2021/08/27 08:27:04;;;;;;;12.80;2.33;;;;;;;;;;5046383;28;20092;-73
2021/08/27 08:29:30;;;;;;;17.95;2.78;;;;;;;;;;5064793;28;20515;-73
2021/08/27 08:31:56;;;;;;;12.70;2.10;;;;;;;;;;5056436;28;20045;-73
2021/08/27 08:34:22;;;;;;;18.02;3.58;;;;;;;;;;5047516;28;20087;-73
2021/08/27 08:36:48;;;;;;;15.65;2.75;;;;;;;;;;5029906;28;20045;-73
2021/08/27 08:39:15;;;;;;;17.08;2.80;;;;;;;;;;5045260;28;20104;-73
2021/08/27 08:41:42;;;;;;;17.30;3.17;;;;;;;;;;5062809;28;20155;-73
2021/08/27 08:44:08;;;;;;;17.67;3.08;;;;;;;;;;5057135;28;20041;-73
2021/08/27 08:46:34;;;;;;;13.82;3.00;;;;;;;;;;5058509;28;20400;-73
2021/08/27 08:49:01;;;;;;;17.75;3.40;;;;;;;;;;5039567;28;20056;-73
2021/08/27 08:51:30;;;;;;;16.73;3.25;;;;;;;;;;5030671;28;20079;-73
2021/08/27 08:53:56;;;;;;;11.35;2.35;;;;;;;;;;5038964;28;20108;-73
2021/08/27 08:56:22;;;;;;;12.57;3.17;;;;;;;;;;5016415;28;20116;-73
2021/08/27 08:58:49;;;;;;;11.48;3.25;;;;;;;;;;5040411;28;20042;-73
2021/08/27 09:01:17;;;;;;;16.20;3.13;;;;;;;;;;5045316;28;20048;-73
2021/08/27 09:03:45;;;;;;;18.27;3.28;;;;;;;;;;5032301;28;20496;-73
2021/08/27 09:06:11;;;;;;;17.80;3.75;;;;;;;;;;5045750;28;20045;-73
2021/08/27 09:08:39;;;;;;;14.50;3.30;;;;;;;;;;5036869;28;20037;-73
2021/08/27 09:11:19;;;;;;;16.77;3.42;;;;;;;;;;5060109;28;20060;-73
2021/08/27 09:13:46;;;;;;;14.05;3.03;;;;;;;;;;5076784;28;20120;-73
2021/08/27 09:16:12;;;;;;;16.30;3.33;;;;;;;;;;5035191;28;20045;-73
2021/08/27 09:18:40;;;;;;;11.90;2.75;;;;;;;;;;5054173;28;20048;-74
2021/08/27 09:21:25;;;;;;;12.40;3.25;;;;;;;;;;5059075;28;20123;-73
2021/08/27 09:23:52;;;;;;;14.52;3.10;;;;;;;;;;5035104;28;20051;-73
2021/08/27 09:26:33;;;;;;;18.05;3.67;;;;;;;;;;5052954;28;20123;-73
2021/08/27 09:28:59;;;;;;;17.10;3.80;;;;;;;;;;5034091;28;20107;-73
2021/08/27 09:31:33;;;;;;;11.52;2.55;;;;;;;;;;5065108;28;20081;-73
2021/08/27 09:34:00;;;;;;;14.35;2.85;;;;;;;;;;5063677;28;20049;-73
2021/08/27 09:36:26;;;;;;;10.27;2.47;;;;;;;;;;5073301;28;20052;-73
2021/08/27 09:39:01;;;;;;;9.20;1.92;;;;;;;;;;5042665;28;20520;-73
2021/08/27 09:41:27;;;;;;;15.35;3.90;;;;;;;;;;5033877;28;20053;-74
2021/08/27 09:43:55;;;;;;;12.75;2.67;;;;;;;;;;5062901;28;20106;-73
2021/08/27 09:46:28;;;;;;;17.73;3.15;;;;;;;;;;5028731;28;20068;-73
2021/08/27 09:48:54;;;;;;;11.02;2.78;;;;;;;;;;5035403;28;20045;-73
2021/08/27 09:51:44;;;;;;;9.20;2.33;;;;;;;;;;5059165;28;20114;-73
2021/08/27 09:54:10;;;;;;;15.18;3.20;;;;;;;;;;5050060;28;20071;-73
2021/08/27 09:56:45;;;;;;;13.38;4.32;;;;;;;;;;5065649;28;20037;-73
2021/08/27 09:59:12;;;;;;;15.38;3.67;;;;;;;;;;5064749;28;20102;-73
2021/08/27 10:01:46;;;;;;;16.25;3.95;;;;;;;;;;5070114;28;20090;-73
2021/08/27 10:04:12;;;;;;;12.63;3.30;;;;;;;;;;5033628;28;20457;-73
2021/08/27 10:06:39;;;;;;;15.65;3.60;;;;;;;;;;5039944;28;20060;-73
2021/08/27 10:09:05;;;;;;;16.50;3.83;;;;;;;;;;5032075;28;20120;-73
2021/08/27 10:11:32;;;;;;;16.52;3.25;;;;;;;;;;5040577;28;20139;-73
2021/08/27 10:13:59;;;;;;;13.23;3.08;;;;;;;;;;5044915;28;20045;-73
2021/08/27 10:16:25;;;;;;;12.60;3.00;;;;;;;;;;5063542;28;20068;-74
2021/08/27 10:18:51;;;;;;;11.32;3.13;;;;;;;;;;5057526;28;20056;-74
2021/08/27 10:21:17;;;;;;;9.45;2.63;;;;;;;;;;5049788;28;20167;-73
2021/08/27 10:23:44;;;;;;;16.23;3.10;;;;;;;;;;5049416;28;20041;-73
2021/08/27 10:26:13;;;;;;;11.98;2.88;;;;;;;;;;5065770;28;20095;-73
2021/08/27 10:28:39;;;;;;;12.60;3.22;;;;;;;;;;5035433;28;20125;-76
2021/08/27 10:31:05;;;;;;;12.23;2.70;;;;;;;;;;5051632;28;20083;-74
2021/08/27 10:33:46;;;;;;;7.82;2.03;;;;;;;;;;5070807;28;20404;-74
2021/08/27 10:36:37;;;;;;;9.98;2.25;;;;;;;;;;5049650;28;20060;-74
2021/08/27 10:39:04;;;;;;;11.70;2.35;;;;;;;;;;5063330;28;20059;-75
2021/08/27 10:41:30;;;;;;;7.72;2.00;;;;;;;;;;5040260;28;20072;-74
2021/08/27 10:44:03;;;;;;;8.77;2.50;;;;;;;;;;5046023;28;20103;-74
2021/08/27 10:46:52;;;;;;;6.72;1.95;;;;;;;;;;5038159;28;20136;-74
2021/08/27 10:49:21;;;;;;;13.68;2.75;;;;;;;;;;5053946;28;20044;-75
2021/08/27 10:51:50;;;;;;;11.95;3.22;;;;;;;;;;5071765;28;20127;-74
2021/08/27 10:54:17;;;;;;;11.88;2.55;;;;;;;;;;5035315;28;20084;-74
2021/08/27 10:56:52;;;;;;;12.82;3.20;;;;;;;;;;5041147;28;20456;-75
2021/08/27 10:59:20;;;;;;;9.63;2.17;;;;;;;;;;5029336;28;20092;-75
2021/08/27 11:01:47;;;;;;;13.93;3.65;;;;;;;;;;5060283;28;20037;-74
2021/08/27 11:04:19;;;;;;;13.55;2.97;;;;;;;;;;5057352;28;20123;-75
2021/08/27 11:06:48;;;;;;;12.90;2.92;;;;;;;;;;5035116;28;20380;-74
2021/08/27 11:09:15;;;;;;;6.97;1.70;;;;;;;;;;5065260;28;20087;-75
2021/08/27 11:11:41;;;;;;;9.55;2.03;;;;;;;;;;5052717;28;20067;-74
2021/08/27 11:14:14;;;;;;;13.45;2.95;;;;;;;;;;5048797;28;20041;-74
2021/08/27 11:16:40;;;;;;;14.65;2.22;;;;;;;;;;5031516;28;20103;-74
2021/08/27 11:19:26;;;;;;;9.73;2.22;;;;;;;;;;5044256;28;20036;-74
2021/08/27 11:21:57;;;;;;;7.97;2.28;;;;;;;;;;5044287;28;20041;-74
2021/08/27 11:24:24;;;;;;;10.15;2.70;;;;;;;;;;5033785;28;20045;-75
2021/08/27 11:27:00;;;;;;;12.43;2.22;;;;;;;;;;5053833;28;20080;-75
2021/08/27 11:29:27;;;;;;;17.27;2.40;;;;;;;;;;5059516;28;20057;-75
2021/08/27 11:31:54;;;;;;;8.18;1.90;;;;;;;;;;5016272;28;20049;-75
2021/08/27 11:34:24;;;;;;;11.57;2.10;;;;;;;;;;5034965;28;20049;-75
2021/08/27 11:36:50;;;;;;;13.07;3.08;;;;;;;;;;5037085;28;20064;-75
2021/08/27 11:39:17;;;;;;;11.68;2.25;;;;;;;;;;5066314;28;20045;-76
2021/08/27 11:41:43;;;;;;;16.83;3.22;;;;;;;;;;5061940;28;20199;-76
2021/08/27 11:44:11;;;;;;;11.35;2.33;;;;;;;;;;5052623;28;20463;-76
2021/08/27 11:46:38;;;;;;;9.10;2.47;;;;;;;;;;5081554;28;20048;-77
2021/08/27 11:49:10;;;;;;;12.23;3.10;;;;;;;;;;5035025;28;20405;-76
2021/08/27 11:51:42;;;;;;;9.80;2.28;;;;;;;;;;5031627;28;20165;-76
2021/08/27 11:54:24;;;;;;;9.48;1.80;;;;;;;;;;5034680;28;20044;-76
2021/08/27 11:56:52;;;;;;;9.65;2.13;;;;;;;;;;5041816;28;20111;-76
2021/08/27 11:59:23;;;;;;;9.65;2.28;;;;;;;;;;5050353;28;20128;-75
2021/08/27 12:01:49;;;;;;;11.13;2.25;;;;;;;;;;5042979;28;20587;-75
2021/08/27 12:04:23;;;;;;;9.75;2.22;;;;;;;;;;5048841;28;20435;-75
2021/08/27 12:07:03;;;;;;;7.90;2.00;;;;;;;;;;5043000;28;20516;-75
2021/08/27 12:09:30;;;;;;;12.90;2.88;;;;;;;;;;5016412;28;20068;-74
2021/08/27 12:11:56;;;;;;;16.05;2.95;;;;;;;;;;5033440;28;20041;-75
2021/08/27 12:14:22;;;;;;;16.95;2.97;;;;;;;;;;5045737;28;20044;-75
2021/08/27 12:16:48;;;;;;;10.48;2.28;;;;;;;;;;5059182;28;20150;-75
2021/08/27 12:19:14;;;;;;;15.93;3.67;;;;;;;;;;5057188;28;20033;-75
2021/08/27 12:21:40;;;;;;;11.50;2.65;;;;;;;;;;5035188;28;20368;-76
2021/08/27 12:24:09;;;;;;;13.00;2.50;;;;;;;;;;5040312;28;20041;-75
2021/08/27 12:26:36;;;;;;;12.90;2.92;;;;;;;;;;5032198;28;20056;-75
2021/08/27 12:29:02;;;;;;;12.93;2.90;;;;;;;;;;5043013;28;20041;-74
2021/08/27 12:31:42;;;;;;;14.05;2.92;;;;;;;;;;5032853;28;20056;-74
2021/08/27 12:34:08;;;;;;;10.43;2.83;;;;;;;;;;5031805;28;20388;-75
2021/08/27 12:36:36;;;;;;;14.07;3.38;;;;;;;;;;5078857;28;20101;-75
2021/08/27 12:39:02;;;;;;;15.50;2.08;;;;;;;;;;5074913;28;20052;-75
2021/08/27 12:41:30;;;;;;;8.35;2.03;;;;;;;;;;5040338;28;20064;-75
2021/08/27 12:44:09;;;;;;;9.23;1.95;;;;;;;;;;5066527;28;20045;-75
2021/08/27 12:46:35;;;;;;;9.35;2.25;;;;;;;;;;5067093;28;20076;-75
2021/08/27 12:49:13;;;;;;;9.05;2.00;;;;;;;;;;5037883;28;20076;-76
2021/08/27 12:51:41;;;;;;;8.55;2.10;;;;;;;;;;5064801;28;20060;-76
2021/08/27 12:54:07;;;;;;;9.30;2.35;;;;;;;;;;5032036;28;20049;-75
2021/08/27 12:56:34;;;;;;;8.10;2.10;;;;;;;;;;5046672;28;20098;-75
2021/08/27 12:59:13;;;;;;;8.05;2.20;;;;;;;;;;5066147;28;20383;-75
2021/08/27 13:01:39;;;;;;;8.80;2.45;;;;;;;;;;5031613;28;20144;-76
2021/08/27 13:04:06;;;;;;;9.60;2.15;;;;;;;;;;5027876;28;20045;-75
2021/08/27 13:06:38;;;;;;;15.07;2.42;;;;;;;;;;5034001;28;20033;-76
2021/08/27 13:09:05;;;;;;;10.75;2.45;;;;;;;;;;5054276;28;20473;-76
2021/08/27 13:11:50;;;;;;;10.10;2.83;;;;;;;;;;5031580;28;20045;-75
2021/08/27 13:14:20;;;;;;;9.68;2.28;;;;;;;;;;5060292;28;20349;-75
2021/08/27 13:16:56;;;;;;;8.45;2.28;;;;;;;;;;5046380;28;20095;-75
2021/08/27 13:19:24;;;;;;;10.05;1.73;;;;;;;;;;5053006;28;20468;-76
2021/08/27 13:21:50;;;;;;;10.77;2.35;;;;;;;;;;5049908;28;20381;-75
2021/08/27 13:24:17;;;;;;;9.32;2.00;;;;;;;;;;5059452;28;20052;-76
2021/08/27 13:26:52;;;;;;;10.75;2.22;;;;;;;;;;5035566;28;20123;-76
2021/08/27 13:29:18;;;;;;;12.73;2.58;;;;;;;;;;5062383;28;20088;-75
2021/08/27 13:31:45;;;;;;;8.63;2.28;;;;;;;;;;5051081;28;20072;-76
2021/08/27 13:34:11;;;;;;;8.23;2.22;;;;;;;;;;5051420;28;20037;-76
2021/08/27 13:36:37;;;;;;;9.95;2.10;;;;;;;;;;5048335;28;20052;-74
2021/08/27 13:39:03;;;;;;;8.40;2.05;;;;;;;;;;5047944;28;20108;-75
2021/08/27 13:41:29;;;;;;;12.00;2.38;;;;;;;;;;5030569;28;20053;-75
2021/08/27 13:43:56;;;;;;;10.75;2.40;;;;;;;;;;5047353;28;20045;-75
2021/08/27 13:46:22;;;;;;;12.88;2.63;;;;;;;;;;5044078;28;20116;-74
2021/08/27 13:48:48;;;;;;;9.43;2.20;;;;;;;;;;5054208;28;20164;-75
2021/08/27 13:51:14;;;;;;;11.85;2.22;;;;;;;;;;5050068;28;20056;-75
2021/08/27 13:53:41;;;;;;;14.95;3.25;;;;;;;;;;5035690;28;20059;-74
2021/08/27 13:56:07;;;;;;;15.30;2.95;;;;;;;;;;5029201;28;20060;-75
2021/08/27 13:58:33;;;;;;;12.55;2.17;;;;;;;;;;5054544;28;20041;-75
2021/08/27 14:00:59;;;;;;;10.75;2.35;;;;;;;;;;5055977;28;20044;-75
2021/08/27 14:03:25;;;;;;;9.32;2.42;;;;;;;;;;5059150;28;20119;-75
2021/08/27 14:05:51;;;;;;;9.88;2.45;;;;;;;;;;5053955;28;20111;-75
2021/08/27 14:08:18;;;;;;;12.35;2.30;;;;;;;;;;5027528;28;20036;-75
2021/08/27 14:10:44;;;;;;;10.70;2.33;;;;;;;;;;5025033;28;20052;-76
2021/08/27 14:13:11;;;;;;;10.60;2.63;;;;;;;;;;5010426;28;20067;-76
2021/08/27 14:15:37;;;;;;;11.27;2.08;;;;;;;;;;5054444;28;20049;-76
2021/08/27 14:18:04;;;;;;;14.95;2.67;;;;;;;;;;5055084;28;20199;-75
2021/08/27 14:20:30;;;;;;;12.02;2.42;;;;;;;;;;5025759;28;20049;-75
2021/08/27 14:22:56;;;;;;;11.90;2.70;;;;;;;;;;5025489;28;20049;-74
2021/08/27 14:25:22;;;;;;;13.20;2.95;;;;;;;;;;5045851;28;20083;-75
2021/08/27 14:27:48;;;;;;;14.43;2.70;;;;;;;;;;5030337;28;20062;-75
2021/08/27 14:30:16;;;;;;;12.50;2.70;;;;;;;;;;5035853;28;20072;-75
2021/08/27 14:32:44;;;;;;;13.48;3.28;;;;;;;;;;5058349;28;20060;-75
2021/08/27 14:35:10;;;;;;;11.82;3.70;;;;;;;;;;5056150;28;20060;-75
2021/08/27 14:37:38;;;;;;;13.93;3.40;;;;;;;;;;5053297;28;20119;-76